Time;durP1;ratioP1;P1;durP2;ratioP2;P2;SDS_P1;SDS_P2;PMS_P1;PMS_P2;Temp;Humidity;BMP_temperature;BMP_pressure;BME280_temperature;BME280_humidity;BME280_pressure;Samples;Min_cycle;Max_cycle;Signal;HPM_P1;HPM_P2
2021/07/16 00:00:18;;;;;;;0.70;0.60;;;18.90;99.90;;;19.44;100.00;9833.69;5088840;28;20425;-74
2021/07/16 00:02:48;;;;;;;0.70;0.70;;;18.90;99.90;;;19.47;100.00;9913.97;5074908;28;20411;-74
2021/07/16 00:05:17;;;;;;;0.70;0.70;;;18.90;99.90;;;19.41;100.00;10048.50;5073553;28;20443;-73
2021/07/16 00:07:45;;;;;;;0.70;0.70;;;18.90;99.90;;;19.49;100.00;10181.03;5089053;28;20472;-73
2021/07/16 00:10:16;;;;;;;0.80;0.80;;;18.90;99.90;;;19.51;100.00;10561.13;5088816;28;20784;-73
2021/07/16 00:12:44;;;;;;;0.70;0.60;;;18.90;99.90;;;19.51;100.00;10997.19;5075154;28;20423;-73
2021/07/16 00:15:16;;;;;;;0.70;0.70;;;18.90;99.90;;;19.42;100.00;11041.25;5073905;28;20402;-74
2021/07/16 00:17:44;;;;;;;0.80;0.70;;;18.90;99.90;;;19.42;100.00;11328.41;5084856;28;20521;-73
2021/07/16 00:20:14;;;;;;;0.70;0.60;;;18.90;99.90;;;19.41;100.00;11589.81;5094331;28;20836;-73
2021/07/16 00:22:42;;;;;;;0.70;0.60;;;18.80;99.90;;;19.39;100.00;11766.31;5095210;28;20472;-73
2021/07/16 00:25:14;;;;;;;0.73;0.70;;;18.80;99.90;;;19.33;100.00;12082.81;5091756;28;20522;-74
2021/07/16 00:27:41;;;;;;;0.70;0.70;;;18.80;99.90;;;19.34;100.00;12293.47;5092135;28;20430;-73
2021/07/16 00:30:11;;;;;;;0.90;0.90;;;18.80;99.90;;;19.34;100.00;12503.88;5064599;28;21246;-73
2021/07/16 00:32:41;;;;;;;1.17;1.07;;;18.80;99.90;;;19.35;100.00;12575.97;5073219;28;20927;-73
2021/07/16 00:35:10;;;;;;;0.70;0.63;;;18.80;99.90;;;19.35;100.00;12722.38;5057014;28;20501;-73
2021/07/16 00:37:37;;;;;;;0.80;0.70;;;18.80;99.90;;;19.31;100.00;13026.75;5074513;28;20481;-73
2021/07/16 00:40:11;;;;;;;0.80;0.73;;;18.80;99.90;;;19.29;100.00;13434.22;5084988;28;20458;-73
2021/07/16 00:42:41;;;;;;;0.80;0.70;;;18.70;99.90;;;19.26;100.00;13571.78;5093278;28;20489;-73
2021/07/16 00:45:11;;;;;;;0.80;0.70;;;18.70;99.90;;;19.39;100.00;13911.72;5092638;28;21007;-73
2021/07/16 00:47:42;;;;;;;0.80;0.70;;;18.70;99.90;;;19.31;100.00;14286.97;5092720;28;20453;-73
2021/07/16 00:50:14;;;;;;;0.70;0.70;;;18.80;99.90;;;19.21;100.00;14781.91;5088737;28;20542;-73
2021/07/16 00:52:44;;;;;;;0.70;0.70;;;18.70;99.90;;;19.27;100.00;15061.06;5074378;28;20424;-73
2021/07/16 00:55:13;;;;;;;0.70;0.60;;;18.70;99.90;;;19.23;100.00;15614.41;5056678;28;20985;-72
2021/07/16 00:57:42;;;;;;;0.70;0.70;;;18.70;99.90;;;19.19;100.00;15869.72;5073237;28;20886;-74
2021/07/16 01:00:11;;;;;;;0.80;0.70;;;18.70;99.90;;;19.17;100.00;16374.94;5073413;28;20460;-73
2021/07/16 01:02:42;;;;;;;0.70;0.70;;;18.70;99.90;;;19.20;100.00;16414.47;5071802;28;20477;-73
2021/07/16 01:05:13;;;;;;;0.70;0.60;;;18.70;99.90;;;19.17;100.00;17027.31;5072423;28;20407;-73
2021/07/16 01:07:41;;;;;;;0.70;0.70;;;18.60;99.90;;;19.19;100.00;17266.91;5072674;28;20913;-73
2021/07/16 01:10:11;;;;;;;0.73;0.70;;;18.60;99.90;;;19.06;100.00;17339.72;5083703;28;20477;-73
2021/07/16 01:12:40;;;;;;;0.70;0.60;;;18.60;99.90;;;19.03;100.00;17677.69;5093242;28;20422;-73
2021/07/16 01:15:08;;;;;;;0.70;0.60;;;18.60;99.90;;;18.97;100.00;17629.31;5092715;28;20999;-73
2021/07/16 01:17:36;;;;;;;0.70;0.60;;;18.50;99.90;;;18.90;100.00;17919.56;5092679;28;20431;-73
2021/07/16 01:20:08;;;;;;;0.70;0.70;;;18.50;99.90;;;18.97;100.00;18296.97;5092011;28;20417;-73
2021/07/16 01:22:40;;;;;;;0.70;0.70;;;18.50;99.90;;;18.99;100.00;18318.25;5071263;28;20444;-72
2021/07/16 01:25:14;;;;;;;0.73;0.73;;;18.40;99.90;;;18.92;100.00;18171.81;5091778;28;20438;-73
2021/07/16 01:27:46;;;;;;;0.70;0.60;;;18.40;99.90;;;19.04;100.00;18618.31;5076612;28;20397;-73
2021/07/16 01:30:17;;;;;;;0.70;0.60;;;18.40;99.90;;;18.93;100.00;18773.28;5089671;28;20433;-73
2021/07/16 01:32:46;;;;;;;0.80;0.70;;;18.40;99.90;;;19.06;100.00;19155.94;5088161;28;20417;-73
2021/07/16 01:35:14;;;;;;;0.73;0.70;;;18.50;99.90;;;19.05;100.00;19358.56;5088433;28;20528;-73
2021/07/16 01:37:44;;;;;;;0.70;0.70;;;18.50;99.90;;;19.00;100.00;19680.44;5102683;28;20900;-73
2021/07/16 01:40:17;;;;;;;0.70;0.60;;;18.50;99.90;;;19.05;100.00;20042.44;5095205;28;20412;-72
2021/07/16 01:42:50;;;;;;;0.73;0.70;;;18.50;99.90;;;18.97;100.00;20183.00;5096365;28;20376;-73
2021/07/16 01:45:22;;;;;;;0.70;0.70;;;18.50;99.90;;;18.88;100.00;20559.75;5098031;28;20441;-73
2021/07/16 01:47:55;;;;;;;0.77;0.67;;;18.40;99.90;;;18.92;100.00;20905.81;5091992;28;20409;-72
2021/07/16 01:50:25;;;;;;;0.70;0.60;;;18.40;99.90;;;18.93;100.00;21003.94;5086165;28;20842;-73
2021/07/16 01:52:54;;;;;;;0.70;0.60;;;18.40;99.90;;;19.03;100.00;21581.47;5078489;28;20480;-72
2021/07/16 01:55:23;;;;;;;0.70;0.70;;;18.40;99.90;;;18.92;100.00;21332.78;5095603;28;20779;-73
2021/07/16 01:57:53;;;;;;;0.80;0.70;;;18.40;99.90;;;18.86;100.00;21906.16;5094533;28;20429;-73
2021/07/16 02:00:26;;;;;;;0.80;0.80;;;18.30;99.90;;;18.89;100.00;21837.81;5081144;28;20451;-73
2021/07/16 02:02:56;;;;;;;1.00;1.00;;;18.40;99.90;;;18.80;100.00;22320.31;5075214;28;20415;-73
2021/07/16 02:05:28;;;;;;;1.00;0.90;;;18.40;99.90;;;18.89;100.00;22725.00;5091709;28;20488;-73
2021/07/16 02:08:01;;;;;;;0.70;0.60;;;18.30;99.90;;;18.89;100.00;22807.53;5073612;28;20827;-73
2021/07/16 02:10:30;;;;;;;0.70;0.70;;;18.30;99.90;;;18.91;100.00;23096.25;5074730;28;21004;-72
2021/07/16 02:12:58;;;;;;;0.70;0.70;;;18.30;99.90;;;18.90;100.00;23216.72;5076105;28;20466;-72
2021/07/16 02:15:30;;;;;;;0.70;0.70;;;18.30;99.90;;;18.91;100.00;23669.94;5073294;28;20495;-72
2021/07/16 02:17:58;;;;;;;0.70;0.70;;;18.30;99.90;;;18.88;100.00;23987.56;5073438;28;20831;-72
2021/07/16 02:20:28;;;;;;;0.70;0.60;;;18.30;99.90;;;18.85;100.00;24469.88;5075331;28;20480;-73
2021/07/16 02:22:59;;;;;;;0.80;0.80;;;18.30;99.90;;;18.83;100.00;25053.53;5074241;28;20430;-72
2021/07/16 02:25:29;;;;;;;0.70;0.60;;;18.30;99.90;;;18.74;100.00;25278.25;5074843;28;20877;-72
2021/07/16 02:28:01;;;;;;;0.70;0.70;;;18.30;99.90;;;18.69;100.00;25499.69;5074476;28;20425;-73
2021/07/16 02:30:29;;;;;;;0.70;0.60;;;18.20;99.90;;;18.62;100.00;25992.88;5091780;28;20479;-73
2021/07/16 02:32:58;;;;;;;0.70;0.60;;;18.20;99.90;;;18.61;100.00;26630.63;5074916;28;20495;-73
2021/07/16 02:35:29;;;;;;;0.80;0.70;;;18.20;99.90;;;18.58;100.00;26647.13;5073498;28;20431;-73
2021/07/16 02:37:57;;;;;;;0.70;0.70;;;18.20;99.90;;;18.63;100.00;26927.66;5090392;28;20516;-73
2021/07/16 02:40:25;;;;;;;0.70;0.70;;;18.10;99.90;;;18.66;100.00;26998.44;5073639;28;20438;-73
2021/07/16 02:42:54;;;;;;;0.70;0.70;;;18.10;99.90;;;18.74;100.00;27584.44;5073600;28;20435;-73
2021/07/16 02:45:23;;;;;;;0.70;0.63;;;18.10;99.90;;;18.54;100.00;27342.84;5074991;28;20506;-73
2021/07/16 02:47:52;;;;;;;0.70;0.70;;;18.10;99.90;;;18.59;100.00;28104.94;5074642;28;20438;-73
2021/07/16 02:50:23;;;;;;;1.03;0.90;;;18.10;99.90;;;18.63;100.00;28191.50;5056135;28;20497;-74
2021/07/16 02:52:51;;;;;;;0.70;0.60;;;18.10;99.90;;;18.47;100.00;28592.63;5073514;28;20439;-73
2021/07/16 02:55:19;;;;;;;0.70;0.60;;;18.00;99.90;;;18.52;100.00;29285.47;5073051;28;20397;-73
2021/07/16 02:57:47;;;;;;;0.70;0.60;;;18.00;99.90;;;18.59;100.00;29273.84;5080566;28;21006;-73
2021/07/16 03:00:19;;;;;;;0.80;0.77;;;18.00;99.90;;;18.58;100.00;29144.53;5093503;28;20507;-73
2021/07/16 03:02:48;;;;;;;0.80;0.80;;;18.00;99.90;;;18.49;100.00;28835.75;5093964;28;20430;-73
2021/07/16 03:05:18;;;;;;;0.70;0.70;;;18.00;99.90;;;18.51;100.00;29207.66;5080137;28;20530;-74
2021/07/16 03:07:47;;;;;;;0.70;0.70;;;18.00;99.90;;;18.50;100.00;29395.09;5074872;28;20447;-73
2021/07/16 03:10:17;;;;;;;0.70;0.60;;;18.00;99.90;;;18.49;100.00;29788.63;5087070;28;20458;-73
2021/07/16 03:12:45;;;;;;;0.70;0.70;;;18.00;99.90;;;18.52;100.00;29502.09;5092621;28;20794;-73
2021/07/16 03:15:17;;;;;;;0.70;0.70;;;18.00;99.90;;;18.62;100.00;29950.44;5094626;28;20457;-73
2021/07/16 03:17:44;;;;;;;0.70;0.70;;;18.00;99.90;;;18.53;100.00;29891.31;5093895;28;20472;-73
2021/07/16 03:20:16;;;;;;;0.70;0.70;;;18.00;99.90;;;18.43;100.00;29839.34;5091957;28;20499;-73
2021/07/16 03:22:44;;;;;;;0.70;0.60;;;17.90;99.90;;;18.30;100.00;30056.41;5109580;28;20415;-74
2021/07/16 03:25:14;;;;;;;0.80;0.70;;;17.90;99.90;;;18.44;100.00;30300.97;5094754;28;20483;-73
2021/07/16 03:27:42;;;;;;;0.70;0.60;;;17.90;99.90;;;18.45;100.00;30332.44;5110226;28;20834;-73
2021/07/16 03:30:13;;;;;;;0.80;0.70;;;17.90;99.90;;;18.29;100.00;30445.00;5081475;28;20463;-73
2021/07/16 03:32:43;;;;;;;0.70;0.60;;;17.80;99.90;;;18.24;100.00;30328.84;5071534;28;20523;-73
2021/07/16 03:35:12;;;;;;;0.70;0.70;;;17.80;99.90;;;18.37;100.00;30485.03;5086109;28;20429;-72
2021/07/16 03:37:41;;;;;;;1.00;1.00;;;17.70;99.90;;;18.32;100.00;30353.97;5091936;28;20521;-73
2021/07/16 03:40:12;;;;;;;0.80;0.70;;;17.70;99.90;;;18.16;100.00;30174.97;5093325;28;20445;-73
2021/07/16 03:42:41;;;;;;;0.80;0.70;;;17.70;99.90;;;18.19;100.00;30372.38;5092844;28;20747;-72
2021/07/16 03:45:14;;;;;;;0.80;0.70;;;17.60;99.90;;;18.13;100.00;30075.44;5075396;28;20537;-73
2021/07/16 03:47:44;;;;;;;1.40;1.30;;;17.60;99.90;;;18.06;100.00;29955.69;5073131;28;20415;-73
2021/07/16 03:50:14;;;;;;;0.70;0.60;;;17.60;99.90;;;18.07;100.00;30080.06;5084919;28;20517;-73
2021/07/16 03:52:42;;;;;;;0.70;0.70;;;17.60;99.90;;;18.09;100.00;29731.13;5093198;28;20464;-73
2021/07/16 03:55:11;;;;;;;0.70;0.70;;;17.60;99.90;;;18.21;100.00;29727.22;5092816;28;20458;-73
2021/07/16 03:57:42;;;;;;;0.80;0.70;;;17.60;99.90;;;18.21;100.00;29593.34;5092704;28;20407;-73
2021/07/16 04:00:13;;;;;;;0.80;0.73;;;17.60;99.90;;;18.11;100.00;29518.31;5080998;28;20458;-73
2021/07/16 04:02:43;;;;;;;0.73;0.70;;;17.60;99.90;;;18.13;100.00;29647.84;5091568;28;20426;-73
2021/07/16 04:05:11;;;;;;;0.87;0.87;;;17.60;99.90;;;18.26;100.00;29518.59;5076941;28;20430;-73
2021/07/16 04:07:45;;;;;;;0.73;0.70;;;17.60;99.90;;;18.23;100.00;29409.09;5091888;28;20437;-73
2021/07/16 04:10:15;;;;;;;0.70;0.70;;;17.60;99.90;;;18.23;100.00;29494.06;5093379;28;20449;-73
2021/07/16 04:12:50;;;;;;;0.70;0.70;;;17.60;99.90;;;18.18;100.00;29707.53;5093240;28;20775;-73
2021/07/16 04:15:17;;;;;;;0.70;0.67;;;17.60;99.90;;;18.15;100.00;29759.91;5092302;28;20930;-74
2021/07/16 04:17:47;;;;;;;0.70;0.60;;;17.60;99.90;;;18.20;100.00;29698.34;5091977;28;20409;-72
2021/07/16 04:20:15;;;;;;;0.70;0.70;;;17.60;99.90;;;18.28;100.00;30040.13;5083653;28;20791;-73
2021/07/16 04:22:44;;;;;;;1.70;1.20;;;17.60;99.90;;;18.23;100.00;30034.72;5055350;28;20522;-73
2021/07/16 04:25:18;;;;;;;0.70;0.70;;;17.60;99.90;;;18.17;100.00;30610.41;5072111;28;20935;-72
2021/07/16 04:27:49;;;;;;;0.80;0.70;;;17.60;99.90;;;18.19;100.00;30815.28;5074479;28;20438;-73
2021/07/16 04:30:19;;;;;;;0.70;0.70;;;17.60;99.90;;;18.17;100.00;30693.09;5091987;28;20461;-73
2021/07/16 04:32:50;;;;;;;0.80;0.70;;;17.60;99.90;;;18.21;100.00;30829.31;5091595;28;20478;-74
2021/07/16 04:35:18;;;;;;;0.70;0.70;;;17.60;99.90;;;18.15;100.00;31016.41;5079860;28;20405;-72
2021/07/16 04:37:46;;;;;;;0.70;0.70;;;17.60;99.90;;;18.13;100.00;31391.28;5075340;28;20912;-73
2021/07/16 04:40:17;;;;;;;0.70;0.60;;;17.60;99.90;;;18.17;100.00;31403.91;5092101;28;20462;-73
2021/07/16 04:42:47;;;;;;;0.70;0.70;;;17.60;99.90;;;18.08;100.00;31476.19;5093590;28;20497;-73
2021/07/16 04:45:15;;;;;;;0.73;0.70;;;17.60;99.90;;;18.06;100.00;31649.84;5091726;28;20389;-73
2021/07/16 04:47:43;;;;;;;0.70;0.60;;;17.60;99.90;;;18.08;100.00;31787.84;5091547;28;20418;-73
2021/07/16 04:50:13;;;;;;;0.80;0.70;;;17.60;99.90;;;18.20;100.00;32137.25;5091931;28;20462;-73
2021/07/16 04:52:43;;;;;;;0.70;0.60;;;17.60;99.90;;;18.27;100.00;32486.72;5090835;28;20480;-73
2021/07/16 04:55:13;;;;;;;0.70;0.60;;;17.70;99.90;;;18.20;100.00;32330.50;5093109;28;20416;-73
2021/07/16 04:57:41;;;;;;;0.70;0.60;;;17.70;99.90;;;18.14;100.00;32708.19;5090704;28;20412;-73
2021/07/16 05:00:11;;;;;;;0.77;0.70;;;17.70;99.90;;;18.17;100.00;33106.56;5071549;28;20505;-73
2021/07/16 05:02:39;;;;;;;0.70;0.60;;;17.70;99.90;;;18.25;100.00;33418.47;5071562;28;20431;-73
2021/07/16 05:05:09;;;;;;;0.70;0.60;;;17.70;99.90;;;18.29;100.00;33204.09;5070967;28;20394;-74
2021/07/16 05:07:38;;;;;;;0.70;0.60;;;17.70;99.90;;;18.27;100.00;33520.22;5088530;28;20927;-72
2021/07/16 05:10:07;;;;;;;0.80;0.70;;;17.70;99.90;;;18.27;100.00;33406.50;5066165;28;20436;-74
2021/07/16 05:12:36;;;;;;;0.70;0.60;;;17.70;99.90;;;18.32;100.00;33322.25;5089537;28;20404;-74
2021/07/16 05:15:06;;;;;;;0.70;0.70;;;17.70;99.90;;;18.41;100.00;33530.84;5092866;28;20484;-74
2021/07/16 05:17:34;;;;;;;0.80;0.70;;;17.80;99.90;;;18.39;100.00;33150.66;5092784;28;20433;-72
2021/07/16 05:20:03;;;;;;;0.70;0.70;;;17.80;99.90;;;18.42;100.00;32789.00;5072659;28;20405;-74
2021/07/16 05:22:31;;;;;;;0.70;0.70;;;17.80;99.90;;;18.35;100.00;32826.31;5070864;28;20764;-72
2021/07/16 05:25:00;;;;;;;0.80;0.70;;;17.80;99.90;;;18.51;100.00;32546.97;5069961;28;20819;-73
2021/07/16 05:27:27;;;;;;;0.80;0.80;;;17.90;99.90;;;18.46;100.00;32435.72;5088067;28;20988;-73
2021/07/16 05:29:55;;;;;;;0.70;0.60;;;17.90;99.90;;;18.49;100.00;31728.69;5088673;28;20432;-73
2021/07/16 05:32:22;;;;;;;0.70;0.60;;;17.90;99.90;;;18.37;100.00;31518.34;5083255;28;20409;-73
2021/07/16 05:34:50;;;;;;;0.70;0.60;;;17.80;99.90;;;18.46;100.00;31673.09;5086156;28;20420;-73
2021/07/16 05:37:17;;;;;;;0.70;0.70;;;17.90;99.90;;;18.34;100.00;32039.97;5070955;28;20394;-73
2021/07/16 05:39:45;;;;;;;0.77;0.70;;;17.80;99.90;;;18.26;100.00;32805.69;5083123;28;20483;-73
2021/07/16 05:42:13;;;;;;;0.70;0.60;;;17.90;99.90;;;18.20;100.00;33188.59;5081382;28;20397;-73
2021/07/16 05:44:41;;;;;;;0.70;0.70;;;17.80;99.90;;;18.30;100.00;33509.19;5092996;28;20426;-73
2021/07/16 05:47:09;;;;;;;0.70;0.60;;;17.80;99.90;;;18.37;100.00;33430.41;5090361;28;20446;-73
2021/07/16 05:49:37;;;;;;;0.70;0.70;;;17.80;99.90;;;18.43;100.00;31957.09;5086454;28;20437;-74
2021/07/16 05:52:05;;;;;;;0.70;0.60;;;17.90;99.90;;;18.40;100.00;32127.97;5070918;28;20463;-73
2021/07/16 05:54:32;;;;;;;0.70;0.60;;;17.80;99.90;;;18.25;100.00;32060.38;5072588;28;20471;-73
2021/07/16 05:57:00;;;;;;;0.70;0.70;;;17.80;99.90;;;18.22;100.00;32576.47;5072415;28;20441;-73
2021/07/16 05:59:29;;;;;;;0.70;0.60;;;17.70;99.90;;;18.24;100.00;33018.34;5071956;28;20782;-73
2021/07/16 06:01:57;;;;;;;0.70;0.70;;;17.70;99.90;;;18.35;100.00;33342.16;5053250;28;20489;-72
2021/07/16 06:04:25;;;;;;;0.80;0.70;;;17.70;99.90;;;18.32;100.00;32412.13;5071012;28;20443;-73
2021/07/16 06:06:52;;;;;;;0.70;0.70;;;17.70;99.90;;;18.14;100.00;32685.00;5071125;28;20394;-74
2021/07/16 06:09:20;;;;;;;0.70;0.70;;;17.70;99.90;;;18.13;100.00;33436.81;5075870;28;20413;-73
2021/07/16 06:11:48;;;;;;;0.70;0.70;;;17.70;99.90;;;18.14;100.00;33282.81;5077591;28;20450;-73
2021/07/16 06:14:15;;;;;;;0.70;0.60;;;17.60;99.90;;;18.10;100.00;33654.03;5074262;28;20438;-73
2021/07/16 06:16:45;;;;;;;0.73;0.70;;;17.60;99.90;;;18.13;100.00;34681.78;5070045;28;20496;-73
2021/07/16 06:19:12;;;;;;;0.70;0.60;;;17.70;99.90;;;18.29;100.00;34673.94;5074000;28;20774;-73
2021/07/16 06:21:40;;;;;;;0.80;0.80;;;17.70;99.90;;;18.20;100.00;33224.66;5075734;28;20433;-73
2021/07/16 06:24:07;;;;;;;0.70;0.60;;;17.60;99.90;;;18.18;100.00;32233.97;5071599;28;20566;-73
2021/07/16 06:26:36;;;;;;;0.70;0.70;;;17.70;99.90;;;18.19;100.00;32729.28;5080300;28;20397;-72
2021/07/16 06:29:03;;;;;;;0.70;0.70;;;17.60;99.90;;;18.21;100.00;31542.75;5079919;28;20844;-73
2021/07/16 06:31:30;;;;;;;0.70;0.70;;;17.70;99.90;;;18.18;100.00;31911.94;5082492;28;20437;-73
2021/07/16 06:34:01;;;;;;;0.70;0.60;;;17.70;99.90;;;18.30;100.00;31555.78;5073760;28;20439;-72
2021/07/16 06:36:28;;;;;;;0.73;0.70;;;17.70;99.90;;;18.26;100.00;29621.88;5074776;28;20420;-73
2021/07/16 06:38:56;;;;;;;0.70;0.70;;;17.70;99.90;;;18.37;100.00;28502.56;5075737;28;20604;-73
2021/07/16 06:41:24;;;;;;;0.70;0.63;;;17.80;99.90;;;18.20;100.00;26916.50;5080343;28;20547;-73
2021/07/16 06:43:51;;;;;;;0.70;0.70;;;17.80;99.90;;;18.34;100.00;25848.34;5072370;28;20438;-73
2021/07/16 06:46:18;;;;;;;0.73;0.70;;;17.80;99.90;;;18.23;100.00;24266.88;5073025;28;20489;-73
2021/07/16 06:48:46;;;;;;;0.70;0.70;;;17.70;99.90;;;18.38;100.00;21731.69;5077903;28;20397;-73
2021/07/16 06:51:17;;;;;;;0.80;0.77;;;17.70;99.90;;;18.39;100.00;17896.13;5074156;28;20489;-73
2021/07/16 06:53:45;;;;;;;0.70;0.60;;;17.70;99.90;;;18.31;100.00;16380.09;5074838;28;20945;-71
2021/07/16 06:56:12;;;;;;;0.70;0.60;;;17.80;99.90;;;18.41;100.00;11211.09;5078598;28;20446;-73
2021/07/16 06:58:39;;;;;;;1.07;1.00;;;17.80;99.90;;;18.64;100.00;6147.97;5081966;28;20427;-73
2021/07/16 07:01:08;;;;;;;0.70;0.60;;;18.00;99.90;;;18.67;100.00;-4109.06;5082562;28;20856;-72
2021/07/16 07:03:36;;;;;;;0.70;0.60;;;18.00;99.90;;;18.64;100.00;-11121.84;5078713;28;20503;-72
2021/07/16 07:06:06;;;;;;;0.70;0.60;;;18.00;99.90;;;18.83;100.00;-16533.44;5085660;28;20850;-73
2021/07/16 07:08:35;;;;;;;0.70;0.70;;;18.10;99.90;;;18.73;100.00;-19979.78;5082727;28;20413;-72
2021/07/16 07:11:03;;;;;;;0.70;0.70;;;18.10;99.90;;;18.58;100.00;-21185.59;5077672;28;20430;-73
2021/07/16 07:13:31;;;;;;;1.27;1.10;;;18.10;99.90;;;18.45;100.00;-21182.16;5082359;28;20418;-73
2021/07/16 07:15:59;;;;;;;0.73;0.70;;;18.10;99.90;;;18.47;100.00;-21182.56;5086874;28;20920;-73
2021/07/16 07:18:28;;;;;;;0.80;0.70;;;18.10;99.90;;;18.33;100.00;-21178.88;5091953;28;20850;-73
2021/07/16 07:20:56;;;;;;;0.80;0.80;;;18.10;99.90;;;18.43;100.00;-21181.47;5093079;28;20416;-73
2021/07/16 07:23:23;;;;;;;0.70;0.70;;;18.00;99.90;;;18.57;100.00;-20488.50;5093448;28;20425;-73
2021/07/16 07:25:52;;;;;;;0.70;0.70;;;18.10;99.90;;;18.79;100.00;-21191.22;5096021;28;20388;-72
2021/07/16 07:28:19;;;;;;;0.80;0.80;;;18.10;99.90;;;18.72;100.00;-21189.44;5083491;28;20863;-73
2021/07/16 07:30:47;;;;;;;0.70;0.70;;;18.10;99.90;;;18.75;100.00;-21190.25;5083105;28;20507;-72
2021/07/16 07:33:15;;;;;;;0.70;0.63;;;18.10;99.90;;;18.73;100.00;-21189.56;5072083;28;20893;-73
2021/07/16 07:35:44;;;;;;;0.80;0.70;;;18.10;99.90;;;18.74;100.00;-21189.84;5076521;28;20435;-72
2021/07/16 07:38:12;;;;;;;0.80;0.70;;;18.20;99.90;;;18.49;100.00;-21183.13;5071834;28;20457;-73
2021/07/16 07:40:41;;;;;;;0.70;0.60;;;18.10;99.90;;;18.56;100.00;-21185.03;5072941;28;20413;-72
2021/07/16 07:43:09;;;;;;;0.80;0.70;;;18.10;99.90;;;18.49;100.00;-21183.25;5072560;28;20423;-72
2021/07/16 07:45:37;;;;;;;0.70;0.60;;;18.10;99.90;;;18.67;100.00;-21187.91;5088321;28;20448;-72
2021/07/16 07:48:06;;;;;;;0.80;0.70;;;18.00;99.90;;;18.49;100.00;-21183.25;5094765;28;20454;-72
2021/07/16 07:50:34;;;;;;;0.70;0.60;;;18.00;99.90;;;18.48;100.00;-21182.84;5090703;28;20896;-72
2021/07/16 07:53:02;;;;;;;0.70;0.70;;;18.00;99.90;;;18.34;100.00;-21179.16;5079656;28;20414;-72
2021/07/16 07:55:30;;;;;;;0.90;0.90;;;17.90;99.90;;;18.29;100.00;-20917.41;5106054;28;20484;-71
2021/07/16 07:57:57;;;;;;;0.80;0.70;;;17.90;99.90;;;18.29;100.00;-19979.13;5070784;28;20570;-73
2021/07/16 08:00:27;;;;;;;0.70;0.63;;;17.80;99.90;;;18.43;100.00;-18767.09;5086732;28;20954;-72
2021/07/16 08:02:55;;;;;;;0.70;0.60;;;17.80;99.90;;;18.29;100.00;-17035.75;5093378;28;20725;-72
2021/07/16 08:05:24;;;;;;;0.70;0.70;;;17.80;99.90;;;18.15;100.00;-13940.13;5078842;28;20413;-72
2021/07/16 08:08:20;;;;;;;0.70;0.70;;;17.80;99.90;;;18.19;100.00;-7058.75;5091855;28;20981;-72
2021/07/16 08:10:48;;;;;;;1.10;1.00;;;17.80;99.90;;;18.25;100.00;1520.13;5091885;28;20467;-72
2021/07/16 08:13:15;;;;;;;0.70;0.60;;;17.90;99.90;;;18.30;100.00;7139.59;5092744;28;20756;-73
2021/07/16 08:15:44;;;;;;;0.70;0.70;;;17.90;99.90;;;18.47;100.00;10067.78;5089946;28;20468;-72
2021/07/16 08:18:12;;;;;;;0.70;0.60;;;17.90;99.90;;;18.51;100.00;10491.25;5087533;28;20439;-72
2021/07/16 08:20:39;;;;;;;0.77;0.70;;;18.00;99.90;;;18.76;100.00;11276.22;5087308;28;20382;-72
2021/07/16 08:23:07;;;;;;;0.80;0.70;;;18.10;99.90;;;18.79;100.00;8321.00;5083478;28;20453;-73
2021/07/16 08:25:35;;;;;;;0.70;0.70;;;18.20;99.90;;;18.70;100.00;8667.31;5084390;28;20389;-72
2021/07/16 08:28:03;;;;;;;0.80;0.70;;;18.30;99.90;;;18.92;100.00;10936.56;5082120;28;20423;-72
2021/07/16 08:30:32;;;;;;;0.70;0.70;;;18.30;99.90;;;18.89;100.00;6653.78;5085995;28;20463;-73
2021/07/16 08:33:02;;;;;;;0.80;0.70;;;18.30;99.90;;;18.87;100.00;1610.16;5072101;28;20939;-73
2021/07/16 08:35:31;;;;;;;0.70;0.60;;;18.40;99.90;;;18.94;100.00;-5873.97;5081876;28;20397;-73
2021/07/16 08:38:00;;;;;;;0.70;0.60;;;18.50;99.90;;;19.28;100.00;-8978.22;5083624;28;20826;-72
2021/07/16 08:40:28;;;;;;;0.80;0.70;;;18.60;99.90;;;19.50;100.00;-13403.25;5081799;28;20386;-72
2021/07/16 08:42:57;;;;;;;0.80;0.70;;;18.80;99.90;;;19.35;100.00;-16042.28;5082212;28;20409;-72
2021/07/16 08:45:26;;;;;;;0.70;0.70;;;18.90;99.90;;;19.67;100.00;-19749.09;5084015;28;20381;-73
2021/07/16 08:47:54;;;;;;;0.80;0.70;;;19.10;99.90;;;19.84;100.00;-21219.38;5081554;28;20489;-72
2021/07/16 08:50:25;;;;;;;0.80;0.70;;;19.20;99.90;;;20.01;100.00;-21223.88;5088789;28;20382;-72
2021/07/16 08:53:00;;;;;;;0.80;0.67;;;19.30;99.90;;;19.93;100.00;-21221.69;5087440;28;20807;-73
2021/07/16 08:55:32;;;;;;;0.70;0.60;;;19.40;99.90;;;20.39;100.00;-21234.00;5071636;28;20465;-72
2021/07/16 08:58:00;;;;;;;0.80;0.70;;;19.60;99.90;;;20.42;100.00;-21234.94;5073345;28;20402;-72
2021/07/16 09:00:27;;;;;;;0.80;0.80;;;19.70;99.90;;;20.36;100.00;-21233.19;5071860;28;20442;-73
2021/07/16 09:02:59;;;;;;;0.80;0.70;;;19.90;99.90;;;20.13;100.00;-21227.03;5092136;28;20899;-73
2021/07/16 09:05:36;;;;;;;0.70;0.60;;;19.90;99.90;;;20.24;100.00;-21230.03;5080805;28;20430;-73
2021/07/16 09:08:13;;;;;;;0.70;0.60;;;19.90;99.90;;;20.47;100.00;-21236.31;5090297;28;20468;-73
2021/07/16 09:10:46;;;;;;;1.30;1.20;;;19.90;99.90;;;20.46;100.00;-21236.03;5090289;28;20432;-73
2021/07/16 09:13:14;;;;;;;0.70;0.67;;;20.00;99.90;;;20.35;100.00;-21233.03;5092118;28;20419;-73
2021/07/16 09:15:49;;;;;;;0.80;0.80;;;20.10;99.90;;;20.14;100.00;-21227.44;5085068;28;20469;-72
2021/07/16 09:18:23;;;;;;;0.73;0.63;;;19.90;99.90;;;20.28;100.00;-21231.25;5088811;28;20433;-74
2021/07/16 09:21:09;;;;;;;0.73;0.70;;;19.90;99.90;;;20.37;100.00;-21233.44;5089632;28;20442;-73
2021/07/16 09:23:39;;;;;;;0.80;0.70;;;19.90;99.90;;;20.14;100.00;-21227.44;5089420;28;20410;-73
2021/07/16 09:26:11;;;;;;;0.70;0.60;;;19.80;99.90;;;20.11;100.00;-21226.63;5085769;28;20423;-73
2021/07/16 09:28:40;;;;;;;0.70;0.63;;;19.80;99.90;;;20.05;100.00;-21224.97;5072520;28;20930;-73
2021/07/16 09:31:16;;;;;;;0.80;0.77;;;19.70;99.90;;;19.90;100.00;-21221.03;5077004;28;20463;-73
2021/07/16 09:33:49;;;;;;;0.70;0.70;;;19.60;99.90;;;19.63;100.00;-21213.78;5071761;28;20405;-72
2021/07/16 09:36:29;;;;;;;0.70;0.60;;;19.50;99.90;;;19.55;100.00;-21211.59;5092655;28;20425;-73
2021/07/16 09:39:04;;;;;;;0.70;0.60;;;19.30;99.90;;;19.28;100.00;-21204.47;5088434;28;20461;-71
2021/07/16 09:41:32;;;;;;;0.70;0.70;;;19.10;99.90;;;19.16;100.00;-21201.19;5092063;28;20506;-71
2021/07/16 09:44:02;;;;;;;0.70;0.67;;;19.00;99.90;;;19.23;100.00;-21202.97;5092630;28;20525;-71
2021/07/16 09:46:30;;;;;;;0.70;0.60;;;19.00;99.90;;;19.50;100.00;-21210.22;5091273;28;20426;-71
2021/07/16 09:49:12;;;;;;;0.80;0.70;;;19.00;99.90;;;19.81;100.00;-21218.41;5088470;28;20445;-71
2021/07/16 09:51:42;;;;;;;0.70;0.70;;;19.20;99.90;;;19.76;100.00;-21217.19;5072466;28;20461;-71
2021/07/16 09:54:13;;;;;;;1.40;1.30;;;19.30;99.90;;;20.19;100.00;-21228.66;5071603;28;20538;-72
2021/07/16 09:56:40;;;;;;;0.80;0.70;;;19.40;99.90;;;20.07;100.00;-21225.38;5052990;28;20431;-71
2021/07/16 09:59:10;;;;;;;0.80;0.70;;;19.60;99.90;;;20.48;100.00;-21236.47;5071799;28;20450;-71
2021/07/16 10:01:40;;;;;;;0.80;0.70;;;19.70;99.90;;;20.57;100.00;-21238.78;5081424;28;20431;-72
2021/07/16 10:04:16;;;;;;;1.27;1.07;;;19.90;99.90;;;20.42;100.00;-21234.94;5081580;28;20422;-71
2021/07/16 10:06:48;;;;;;;0.70;0.70;;;20.00;99.90;;;20.49;100.00;-21236.72;5090096;28;20442;-72
2021/07/16 10:09:16;;;;;;;0.70;0.63;;;20.00;99.90;;;20.55;100.00;-21238.38;5095506;28;20841;-71
2021/07/16 10:11:47;;;;;;;0.70;0.60;;;20.00;99.90;;;20.42;100.00;-21234.81;5087443;28;20981;-71
2021/07/16 10:14:15;;;;;;;0.70;0.70;;;19.90;99.90;;;20.18;100.00;-21228.53;5073304;28;20857;-71
2021/07/16 10:16:44;;;;;;;0.70;0.60;;;19.90;99.90;;;19.82;100.00;-21218.84;5087307;28;20513;-72
2021/07/16 10:19:13;;;;;;;0.70;0.60;;;19.60;99.90;;;19.92;100.00;-21221.56;5093898;28;20410;-72